Villa Alemana, Chile
Current Conditions -  °F | °C
As of 12:00 PM on Sunday 25 Jan 2015 (Local Time) from SCVM Reporting Station
Few Clouds Few Clouds  
Wind Chill: 19°   Ceiling: Unl
Heat Index: 19°   Visibility: 5mi
Dew Point: 13°   Wind: 12mph
Humidity: 68%   Direction: 300°WNW
Pressure: 29.97"   Gusts: NA
Location:  33.04°S, 71.36°W
Report Text: SCVM 251600Z 30010KT 8000 FEW025 19/13 Q1015
Loading
Personal Weather Stations






























Interactive Weather Map New forecast layout! Learn more

10-Day Weather Forecast

Advertisements
Track Severe Weather on mobile